Time;durP1;ratioP1;P1;durP2;ratioP2;P2;SDS_P1;SDS_P2;PMS_P1;PMS_P2;Temp;Humidity;BMP_temperature;BMP_pressure;BME280_temperature;BME280_humidity;BME280_pressure;Samples;Min_cycle;Max_cycle;Signal;HPM_P1;HPM_P2
2021/12/29 00:01:52;;;;;;;13.43;7.55;;;8.40;94.90;;;;;;6317983;22;20167;-85
2021/12/29 00:04:19;;;;;;;7.18;2.08;;;8.40;95.00;;;;;;6345076;22;20202;-86
2021/12/29 00:06:46;;;;;;;11.50;5.38;;;8.50;93.80;;;;;;6345788;22;20190;-86
2021/12/29 00:09:13;;;;;;;20.98;11.85;;;8.70;93.50;;;;;;6344402;22;20594;-86
2021/12/29 00:11:41;;;;;;;41.38;23.40;;;8.50;94.70;;;;;;6346341;22;20222;-85
2021/12/29 00:14:10;;;;;;;12.20;5.28;;;8.60;95.00;;;;;;6345325;22;20567;-85
2021/12/29 00:16:37;;;;;;;20.20;10.50;;;8.60;94.30;;;;;;6345673;22;20266;-86
2021/12/29 00:19:06;;;;;;;6.40;1.90;;;8.50;94.20;;;;;;6346890;22;20218;-85
2021/12/29 00:21:35;;;;;;;14.05;5.28;;;8.50;94.20;;;;;;6321463;22;20167;-88
2021/12/29 00:24:03;;;;;;;6.65;2.47;;;9.00;93.10;;;;;;6344172;22;20198;-88
2021/12/29 00:26:31;;;;;;;6.72;2.85;;;9.00;92.50;;;;;;6346234;22;20797;-88
2021/12/29 00:28:59;;;;;;;22.63;10.77;;;8.90;92.70;;;;;;6345699;22;20246;-88
2021/12/29 00:31:27;;;;;;;23.95;12.23;;;8.80;93.10;;;;;;6316714;22;20179;-88
2021/12/29 00:33:54;;;;;;;15.57;5.65;;;8.70;93.50;;;;;;6344621;22;20195;-87
2021/12/29 00:36:23;;;;;;;5.13;2.33;;;8.80;94.40;;;;;;6343777;22;20174;-88
2021/12/29 00:38:50;;;;;;;8.75;3.22;;;8.70;92.60;;;;;;6342255;22;20197;-87
2021/12/29 00:41:18;;;;;;;8.05;2.00;;;8.80;93.10;;;;;;6343251;22;20171;-87
2021/12/29 00:43:46;;;;;;;9.07;2.30;;;8.70;92.60;;;;;;6284539;22;20225;-89
2021/12/29 00:46:17;;;;;;;4.05;2.00;;;8.50;93.60;;;;;;6306912;22;20197;-86
2021/12/29 00:48:46;;;;;;;6.93;1.98;;;8.60;94.30;;;;;;6343267;22;20195;-88
2021/12/29 00:51:14;;;;;;;5.35;1.85;;;8.60;93.40;;;;;;6344206;22;20171;-88
2021/12/29 00:53:43;;;;;;;7.40;2.10;;;8.60;92.50;;;;;;6343136;22;20191;-87
2021/12/29 00:56:11;;;;;;;6.75;1.70;;;8.50;93.60;;;;;;6345687;22;20174;-88
2021/12/29 00:58:38;;;;;;;8.00;2.28;;;8.50;93.30;;;;;;6345575;22;20247;-89
2021/12/29 01:01:06;;;;;;;6.75;1.80;;;8.60;93.40;;;;;;6316766;22;20444;-87
2021/12/29 01:03:34;;;;;;;6.68;1.92;;;8.40;92.40;;;;;;6342922;22;20198;-85
2021/12/29 01:06:02;;;;;;;8.77;2.03;;;8.40;92.80;;;;;;6343129;22;20191;-89
2021/12/29 01:08:29;;;;;;;6.53;1.70;;;8.30;93.30;;;;;;6318857;22;20201;-85
2021/12/29 01:10:58;;;;;;;8.68;2.10;;;8.10;93.40;;;;;;6343342;22;20206;-89
2021/12/29 01:13:30;;;;;;;8.80;1.60;;;8.10;93.70;;;;;;6342505;22;20202;-86
2021/12/29 01:16:15;;;;;;;6.33;1.90;;;7.90;93.80;;;;;;6343434;22;20214;-85
2021/12/29 01:18:44;;;;;;;6.67;1.80;;;7.90;94.10;;;;;;6343660;22;20279;-88
2021/12/29 01:21:11;;;;;;;5.20;1.80;;;7.90;93.90;;;;;;6341615;22;20177;-85
2021/12/29 01:23:39;;;;;;;6.55;1.92;;;8.00;93.70;;;;;;6340034;22;20195;-87
2021/12/29 01:26:07;;;;;;;7.90;1.90;;;8.00;93.70;;;;;;6342624;22;20183;-88
2021/12/29 01:28:35;;;;;;;5.13;1.57;;;8.00;93.60;;;;;;6340855;22;20207;-88
2021/12/29 01:31:02;;;;;;;7.03;1.57;;;8.00;93.40;;;;;;6341646;22;20163;-87
2021/12/29 01:33:29;;;;;;;7.10;2.00;;;8.00;93.40;;;;;;6341480;22;20266;-87
2021/12/29 01:35:56;;;;;;;5.45;1.92;;;8.10;93.40;;;;;;6343809;22;20179;-87
2021/12/29 01:38:23;;;;;;;6.50;1.83;;;8.10;93.00;;;;;;6343048;22;20194;-87
2021/12/29 01:40:50;;;;;;;6.07;1.85;;;8.10;93.10;;;;;;6343368;22;20547;-87
2021/12/29 01:43:19;;;;;;;7.63;1.70;;;8.20;92.80;;;;;;6343568;22;20270;-86
2021/12/29 01:45:47;;;;;;;6.68;2.03;;;8.20;93.00;;;;;;6346950;22;20574;-88
2021/12/29 01:48:16;;;;;;;4.20;1.90;;;8.20;92.90;;;;;;6316073;22;20661;-87
2021/12/29 01:50:47;;;;;;;6.03;1.67;;;8.20;92.60;;;;;;6346768;22;20170;-87
2021/12/29 01:53:22;;;;;;;5.50;2.00;;;8.20;92.70;;;;;;6346330;22;20214;-86
2021/12/29 01:55:50;;;;;;;7.82;1.85;;;8.20;92.50;;;;;;6344469;22;20155;-87
2021/12/29 01:58:20;;;;;;;8.90;2.25;;;8.20;92.40;;;;;;6344674;22;20209;-88
2021/12/29 02:00:47;;;;;;;7.90;1.73;;;8.20;92.50;;;;;;6347481;22;20223;-87
2021/12/29 02:03:15;;;;;;;7.45;1.88;;;8.20;92.20;;;;;;6344484;22;20201;-87
2021/12/29 02:05:42;;;;;;;6.75;1.60;;;8.20;92.20;;;;;;6345496;22;20680;-87
2021/12/29 02:08:10;;;;;;;5.80;1.85;;;8.30;91.70;;;;;;6343817;22;20199;-86
2021/12/29 02:10:43;;;;;;;6.40;1.73;;;8.30;91.70;;;;;;6343424;22;20250;-88
2021/12/29 02:13:11;;;;;;;5.70;2.17;;;8.20;91.50;;;;;;6347076;22;20238;-90
2021/12/29 02:15:39;;;;;;;7.97;2.13;;;8.30;91.30;;;;;;6339542;22;20190;-87
2021/12/29 02:18:13;;;;;;;8.32;2.35;;;8.30;91.00;;;;;;6338144;22;20201;-88
2021/12/29 02:20:44;;;;;;;7.10;1.80;;;8.30;91.10;;;;;;6340039;22;20156;-88
2021/12/29 02:23:16;;;;;;;5.22;1.88;;;8.30;91.60;;;;;;6339499;22;20817;-85
2021/12/29 02:25:50;;;;;;;7.82;1.73;;;8.30;91.60;;;;;;6339654;22;20661;-86
2021/12/29 02:28:22;;;;;;;7.07;2.20;;;8.20;91.50;;;;;;6339088;22;20659;-88
2021/12/29 02:30:50;;;;;;;5.85;1.80;;;8.20;91.50;;;;;;6339995;22;20155;-87
2021/12/29 02:33:18;;;;;;;7.30;1.90;;;8.30;91.30;;;;;;6337888;22;20216;-87
2021/12/29 02:35:46;;;;;;;5.93;2.00;;;8.30;91.50;;;;;;6339031;22;20173;-88
2021/12/29 02:38:23;;;;;;;5.60;1.88;;;8.20;91.50;;;;;;6339760;22;20266;-87
2021/12/29 02:40:52;;;;;;;5.43;1.70;;;8.30;91.20;;;;;;6339614;22;20246;-88
2021/12/29 02:43:22;;;;;;;6.50;1.98;;;8.30;91.50;;;;;;6337780;22;20203;-86
2021/12/29 02:45:58;;;;;;;5.35;1.80;;;8.30;91.50;;;;;;6338562;22;20182;-87
2021/12/29 02:48:26;;;;;;;6.90;1.90;;;8.30;91.80;;;;;;6337997;22;20214;-87
2021/12/29 02:50:56;;;;;;;6.50;1.95;;;8.40;91.80;;;;;;6339300;22;20174;-87
2021/12/29 02:53:24;;;;;;;7.77;2.03;;;8.40;91.70;;;;;;6337596;22;20191;-88
2021/12/29 02:55:52;;;;;;;6.37;1.90;;;8.20;92.20;;;;;;6338694;22;20242;-88
2021/12/29 02:58:19;;;;;;;10.05;1.80;;;8.20;92.40;;;;;;6337269;22;20638;-87
2021/12/29 03:00:47;;;;;;;7.75;2.10;;;8.20;93.10;;;;;;6339701;22;20164;-86
2021/12/29 03:03:18;;;;;;;6.45;2.03;;;8.10;93.60;;;;;;6337900;22;20194;-86
2021/12/29 03:05:46;;;;;;;7.03;1.60;;;8.10;93.70;;;;;;6338189;22;20201;-87
2021/12/29 03:08:17;;;;;;;6.05;1.75;;;8.00;94.40;;;;;;6338730;22;20282;-88
2021/12/29 03:10:45;;;;;;;8.73;1.60;;;7.90;94.80;;;;;;6340583;22;20167;-93
2021/12/29 03:13:12;;;;;;;6.57;2.30;;;7.90;95.00;;;;;;6338781;22;20274;-87
2021/12/29 03:15:40;;;;;;;8.23;1.70;;;7.90;95.60;;;;;;6339393;22;20174;-90
2021/12/29 03:18:08;;;;;;;8.02;1.63;;;7.90;95.70;;;;;;6339470;22;20274;-86
2021/12/29 03:20:35;;;;;;;5.40;1.58;;;7.80;95.70;;;;;;6312695;22;20178;-88
2021/12/29 03:23:03;;;;;;;7.57;1.90;;;7.80;95.70;;;;;;6339535;22;20266;-87
2021/12/29 03:25:31;;;;;;;8.60;1.90;;;7.70;96.30;;;;;;6339795;22;20171;-88
2021/12/29 03:28:00;;;;;;;2.77;1.30;;;7.70;97.00;;;;;;6339302;22;20190;-87
2021/12/29 03:30:28;;;;;;;6.37;1.70;;;7.70;96.50;;;;;;6340255;22;20491;-86
2021/12/29 03:33:03;;;;;;;6.73;1.80;;;7.70;97.10;;;;;;6339732;22;20578;-86
2021/12/29 03:35:32;;;;;;;7.88;2.08;;;7.60;96.90;;;;;;6342049;22;20177;-86
2021/12/29 03:38:00;;;;;;;5.77;1.70;;;7.60;96.80;;;;;;6341153;22;20199;-87
2021/12/29 03:40:27;;;;;;;3.53;1.53;;;7.60;97.10;;;;;;6341114;22;20632;-86
2021/12/29 03:42:57;;;;;;;9.17;1.90;;;7.60;96.80;;;;;;6339130;22;20191;-87
2021/12/29 03:45:25;;;;;;;5.18;1.40;;;7.70;96.10;;;;;;6339399;22;20173;-86
2021/12/29 03:47:52;;;;;;;4.70;1.38;;;7.70;95.70;;;;;;6340865;22;20203;-89
2021/12/29 03:50:19;;;;;;;4.80;1.30;;;7.80;95.70;;;;;;6339276;22;20163;-87
2021/12/29 03:52:46;;;;;;;4.23;1.40;;;7.90;95.70;;;;;;6339918;22;20171;-86
2021/12/29 03:55:14;;;;;;;4.00;1.25;;;7.90;95.30;;;;;;6341107;22;20175;-88
2021/12/29 03:57:42;;;;;;;5.00;1.67;;;8.00;95.00;;;;;;6341650;22;20179;-86
2021/12/29 04:00:13;;;;;;;3.67;1.58;;;7.90;95.20;;;;;;6342424;22;20485;-86
2021/12/29 04:02:41;;;;;;;3.72;1.58;;;8.00;95.30;;;;;;6341825;22;20152;-86
2021/12/29 04:05:10;;;;;;;4.55;1.40;;;7.90;95.50;;;;;;6343415;22;20172;-87
2021/12/29 04:07:37;;;;;;;3.83;1.38;;;7.90;95.70;;;;;;6344391;22;20191;-86
2021/12/29 04:10:06;;;;;;;6.30;1.48;;;7.90;95.70;;;;;;6345935;22;20689;-87
2021/12/29 04:12:33;;;;;;;3.35;1.13;;;7.90;95.60;;;;;;6343453;22;20163;-86
2021/12/29 04:15:00;;;;;;;2.45;1.40;;;7.90;95.40;;;;;;6342821;22;20168;-88
2021/12/29 04:17:36;;;;;;;3.88;1.38;;;8.00;94.70;;;;;;6343970;22;20270;-86
2021/12/29 04:22:50;;;;;;;3.30;1.30;;;8.10;94.40;;;;;;6355722;22;20602;-86
2021/12/29 04:25:19;;;;;;;5.30;1.20;;;8.10;95.00;;;;;;6346914;22;20354;-87
2021/12/29 04:27:47;;;;;;;5.20;1.40;;;8.10;94.80;;;;;;6340082;22;20237;-88
2021/12/29 04:30:14;;;;;;;4.00;1.33;;;8.10;95.00;;;;;;6339394;22;20228;-86
2021/12/29 04:32:43;;;;;;;5.72;1.52;;;8.00;95.50;;;;;;6339877;22;20246;-87
2021/12/29 04:35:10;;;;;;;2.88;1.38;;;8.00;95.70;;;;;;6339116;22;20167;-87
2021/12/29 04:37:37;;;;;;;5.75;1.52;;;7.90;95.70;;;;;;6339320;22;20174;-88
2021/12/29 04:40:06;;;;;;;6.63;1.60;;;7.90;95.70;;;;;;6338845;22;20163;-86
2021/12/29 04:42:33;;;;;;;4.60;1.30;;;7.90;95.70;;;;;;6339456;22;20170;-87
2021/12/29 04:45:00;;;;;;;4.93;1.40;;;7.90;95.70;;;;;;6338725;22;20491;-88
2021/12/29 04:47:30;;;;;;;4.17;1.50;;;7.80;96.20;;;;;;6340528;22;20621;-86
2021/12/29 04:50:02;;;;;;;5.20;1.47;;;7.80;96.70;;;;;;6337828;22;20187;-88
2021/12/29 04:52:31;;;;;;;5.37;1.47;;;7.80;97.00;;;;;;6338874;22;20160;-87
2021/12/29 04:54:58;;;;;;;5.13;1.43;;;7.70;97.50;;;;;;6337980;22;20191;-89
2021/12/29 04:57:26;;;;;;;4.20;1.60;;;7.70;98.10;;;;;;6339531;22;20173;-87
2021/12/29 04:59:53;;;;;;;6.97;1.67;;;7.60;98.20;;;;;;6338107;22;20709;-88
2021/12/29 05:02:20;;;;;;;5.73;1.40;;;7.60;98.20;;;;;;6338816;22;20167;-86
2021/12/29 05:04:55;;;;;;;4.60;1.53;;;7.50;98.50;;;;;;6337003;22;20513;-87
2021/12/29 05:10:08;;;;;;;5.50;1.60;;;7.40;99.10;;;;;;6274462;22;20179;-88
2021/12/29 05:12:35;;;;;;;5.73;1.67;;;7.40;99.10;;;;;;6311766;22;20170;-87
2021/12/29 05:15:02;;;;;;;6.67;1.60;;;7.40;99.30;;;;;;6338203;22;20163;-88
2021/12/29 05:17:30;;;;;;;7.17;1.60;;;7.40;99.30;;;;;;6338326;22;20191;-89
2021/12/29 05:19:57;;;;;;;4.87;1.30;;;7.40;99.30;;;;;;6337715;22;20199;-88
2021/12/29 05:22:25;;;;;;;3.57;1.20;;;7.40;99.60;;;;;;6338497;22;20168;-87
2021/12/29 05:24:52;;;;;;;5.17;1.43;;;7.40;99.60;;;;;;6337630;22;20634;-89
2021/12/29 05:27:19;;;;;;;4.17;1.43;;;7.40;99.70;;;;;;6337737;22;20195;-90
2021/12/29 05:29:46;;;;;;;8.40;1.53;;;7.40;99.90;;;;;;6337149;22;20195;-88
2021/12/29 05:32:13;;;;;;;6.83;2.00;;;7.30;99.90;;;;;;6337441;22;20187;-89
2021/12/29 05:34:40;;;;;;;6.40;1.70;;;7.30;99.90;;;;;;6336583;22;20198;-88
2021/12/29 05:37:07;;;;;;;3.77;1.60;;;7.30;99.90;;;;;;6336921;22;20481;-88
2021/12/29 05:39:36;;;;;;;5.50;1.60;;;7.30;99.90;;;;;;6309077;22;20195;-90
2021/12/29 05:42:03;;;;;;;3.25;1.42;;;7.30;99.90;;;;;;6337743;22;20164;-88
2021/12/29 05:44:30;;;;;;;4.97;1.70;;;7.30;99.80;;;;;;6337648;22;20191;-88
2021/12/29 05:46:58;;;;;;;4.60;1.60;;;7.30;99.90;;;;;;6338364;22;20191;-88
2021/12/29 05:49:25;;;;;;;6.63;1.40;;;7.40;99.40;;;;;;6337368;22;20199;-87
2021/12/29 05:51:52;;;;;;;5.93;1.50;;;7.40;99.30;;;;;;6339869;22;20171;-90
2021/12/29 05:54:19;;;;;;;5.78;1.90;;;7.40;99.20;;;;;;6338325;22;20191;-88
2021/12/29 05:56:48;;;;;;;4.97;1.48;;;7.40;99.20;;;;;;6338574;22;20615;-89
2021/12/29 05:59:15;;;;;;;5.27;1.67;;;7.40;99.20;;;;;;6337870;22;20566;-88
2021/12/29 06:01:43;;;;;;;4.88;1.30;;;7.50;99.40;;;;;;6339372;22;20194;-85
2021/12/29 06:04:10;;;;;;;7.40;1.70;;;7.40;99.60;;;;;;6342882;22;20201;-85
2021/12/29 06:06:37;;;;;;;6.65;1.63;;;7.40;99.70;;;;;;6342039;22;20642;-88
2021/12/29 06:09:04;;;;;;;5.30;1.77;;;7.40;99.70;;;;;;6344235;22;20638;-88
2021/12/29 06:11:31;;;;;;;4.43;1.30;;;7.40;99.50;;;;;;6345833;22;20222;-85
2021/12/29 06:14:00;;;;;;;4.82;1.60;;;7.40;99.80;;;;;;6343579;22;20428;-86
2021/12/29 06:16:27;;;;;;;7.97;1.77;;;7.40;99.50;;;;;;6344225;22;20737;-85
2021/12/29 06:18:55;;;;;;;5.17;1.30;;;7.40;99.40;;;;;;6342913;22;20286;-85
2021/12/29 06:21:22;;;;;;;3.53;1.50;;;7.40;99.20;;;;;;6343200;22;20171;-86
2021/12/29 06:23:49;;;;;;;4.85;1.27;;;7.40;99.30;;;;;;6343293;22;20198;-86
2021/12/29 06:26:16;;;;;;;7.00;1.58;;;7.40;98.80;;;;;;6342078;22;20622;-86
2021/12/29 06:28:46;;;;;;;3.43;1.30;;;7.60;98.20;;;;;;6340443;22;20665;-89
2021/12/29 06:31:15;;;;;;;6.68;1.70;;;7.60;97.20;;;;;;6340333;22;20167;-85
2021/12/29 06:33:42;;;;;;;5.23;1.40;;;7.50;97.60;;;;;;6341392;22;20489;-87
2021/12/29 06:36:09;;;;;;;5.77;1.50;;;7.50;97.60;;;;;;6341795;22;20638;-86
2021/12/29 06:38:37;;;;;;;3.73;1.27;;;7.60;97.40;;;;;;6342142;22;20199;-87
2021/12/29 06:41:05;;;;;;;4.35;1.45;;;7.50;97.40;;;;;;6342719;22;20514;-86
2021/12/29 06:43:32;;;;;;;3.33;1.43;;;7.50;97.40;;;;;;6348158;22;20198;-87
2021/12/29 06:45:59;;;;;;;3.10;1.60;;;7.50;97.30;;;;;;6345829;22;20171;-86
2021/12/29 06:48:28;;;;;;;3.47;1.25;;;7.50;97.50;;;;;;6338837;22;20206;-86
2021/12/29 06:50:55;;;;;;;3.73;1.30;;;7.50;97.40;;;;;;6338250;22;20482;-88
2021/12/29 06:53:22;;;;;;;5.03;1.33;;;7.50;97.40;;;;;;6336876;22;20484;-86
2021/12/29 06:55:49;;;;;;;3.55;1.33;;;7.50;97.40;;;;;;6338059;22;20152;-88
2021/12/29 06:58:16;;;;;;;5.57;1.35;;;7.50;97.60;;;;;;6337149;22;20201;-87
2021/12/29 07:00:43;;;;;;;3.92;1.40;;;7.50;97.50;;;;;;6337435;22;20167;-88
2021/12/29 07:03:10;;;;;;;3.43;1.20;;;7.50;97.60;;;;;;6338315;22;20191;-87
2021/12/29 07:05:40;;;;;;;2.37;1.30;;;7.50;97.60;;;;;;6345831;22;20242;-87
2021/12/29 07:08:07;;;;;;;2.75;1.20;;;7.60;97.60;;;;;;6341607;22;20195;-86
2021/12/29 07:10:34;;;;;;;5.85;1.65;;;7.50;97.60;;;;;;6341774;22;20173;-87
2021/12/29 07:13:01;;;;;;;4.50;1.27;;;7.60;97.30;;;;;;6341433;22;20191;-85
2021/12/29 07:15:28;;;;;;;4.13;1.35;;;7.60;97.30;;;;;;6341190;22;20174;-85
2021/12/29 07:17:55;;;;;;;2.03;1.40;;;7.60;97.50;;;;;;6341367;22;20251;-86
2021/12/29 07:20:22;;;;;;;4.03;1.10;;;7.70;97.20;;;;;;6341066;22;20234;-86
2021/12/29 07:22:51;;;;;;;3.00;1.35;;;7.70;96.80;;;;;;6340374;22;20163;-85
2021/12/29 07:25:18;;;;;;;3.67;1.15;;;7.70;97.00;;;;;;6340751;22;20169;-85
2021/12/29 07:27:45;;;;;;;4.67;1.43;;;7.80;96.60;;;;;;6340034;22;20193;-85
2021/12/29 07:30:13;;;;;;;1.58;1.00;;;7.80;96.40;;;;;;6341044;22;20175;-87
2021/12/29 07:32:40;;;;;;;4.28;1.30;;;7.80;96.30;;;;;;6339298;22;20169;-86
2021/12/29 07:35:08;;;;;;;3.58;1.17;;;7.80;96.20;;;;;;6341216;22;20167;-89
2021/12/29 07:37:35;;;;;;;3.42;1.38;;;7.80;96.50;;;;;;6341560;22;20198;-86
2021/12/29 07:40:07;;;;;;;2.73;1.13;;;7.80;96.00;;;;;;6342257;22;20242;-85
2021/12/29 07:42:34;;;;;;;3.55;1.30;;;7.90;96.00;;;;;;6342312;22;20152;-86
2021/12/29 07:45:03;;;;;;;2.15;1.13;;;7.90;96.30;;;;;;6343120;22;20167;-87
2021/12/29 07:47:30;;;;;;;4.40;1.20;;;7.90;95.70;;;;;;6315152;22;20256;-87
2021/12/29 07:49:58;;;;;;;4.07;1.30;;;8.00;95.70;;;;;;6315237;22;20654;-87
2021/12/29 07:52:25;;;;;;;3.97;1.15;;;8.00;95.70;;;;;;6343075;22;20245;-85
2021/12/29 07:54:52;;;;;;;5.20;1.50;;;8.00;95.60;;;;;;6342659;22;20195;-86
2021/12/29 07:57:20;;;;;;;2.90;1.23;;;8.10;95.70;;;;;;6345137;22;20291;-85
2021/12/29 07:59:47;;;;;;;4.18;1.27;;;8.10;95.70;;;;;;6344620;22;20270;-87
2021/12/29 08:02:19;;;;;;;2.47;1.00;;;8.10;95.20;;;;;;6316836;22;20171;-89
2021/12/29 08:04:47;;;;;;;3.13;1.20;;;8.10;95.20;;;;;;6340260;22;20669;-91
2021/12/29 08:07:17;;;;;;;2.67;1.20;;;8.20;95.00;;;;;;6340395;22;20199;-89
2021/12/29 08:09:44;;;;;;;2.42;1.10;;;8.20;94.90;;;;;;6312760;22;20260;-89
2021/12/29 08:12:11;;;;;;;3.70;1.42;;;8.20;95.10;;;;;;6340850;22;20253;-89
2021/12/29 08:14:40;;;;;;;3.22;1.55;;;8.10;95.10;;;;;;6339793;22;20635;-86
2021/12/29 08:17:07;;;;;;;3.85;1.25;;;8.20;95.10;;;;;;6346830;22;20239;-86
2021/12/29 08:19:35;;;;;;;2.35;1.00;;;8.20;95.00;;;;;;6346778;22;20194;-86
2021/12/29 08:22:02;;;;;;;2.63;0.95;;;8.20;94.80;;;;;;6348573;22;20219;-85
2021/12/29 08:24:29;;;;;;;3.25;1.10;;;8.20;94.90;;;;;;6348185;22;20271;-85
2021/12/29 08:26:57;;;;;;;5.72;1.45;;;8.20;95.20;;;;;;6349735;22;20246;-85
2021/12/29 08:29:24;;;;;;;1.75;1.23;;;8.20;95.30;;;;;;6320306;22;20662;-85
2021/12/29 08:31:52;;;;;;;2.88;1.10;;;8.30;94.90;;;;;;6348983;22;20175;-87
2021/12/29 08:34:26;;;;;;;2.63;1.10;;;8.40;94.90;;;;;;6347513;22;20274;-85
2021/12/29 08:43:37;;;;;;;1.70;0.80;;;8.70;93.10;;;;;;6339948;22;20214;-88
2021/12/29 08:46:04;;;;;;;2.47;0.93;;;8.80;92.90;;;;;;6341969;22;20171;-89
2021/12/29 08:48:33;;;;;;;1.75;0.85;;;8.70;93.20;;;;;;6314245;22;20203;-88
2021/12/29 08:51:00;;;;;;;2.92;1.30;;;8.80;93.30;;;;;;6342652;22;20240;-90
2021/12/29 08:53:29;;;;;;;1.83;1.08;;;8.80;93.50;;;;;;6342013;22;20298;-89
2021/12/29 08:55:57;;;;;;;1.88;1.20;;;8.80;92.90;;;;;;6315554;22;20175;-90
2021/12/29 08:58:25;;;;;;;3.28;1.17;;;8.70;92.90;;;;;;6341507;22;20195;-89
2021/12/29 09:00:53;;;;;;;2.55;1.17;;;8.80;92.90;;;;;;6315813;22;20179;-88
2021/12/29 09:03:20;;;;;;;2.47;1.02;;;9.00;92.40;;;;;;6316042;22;20274;-90
2021/12/29 09:05:49;;;;;;;1.92;1.00;;;9.10;92.40;;;;;;6343846;22;20201;-89
2021/12/29 09:08:16;;;;;;;3.95;1.10;;;9.10;91.80;;;;;;6342699;22;20203;-89
2021/12/29 09:10:44;;;;;;;2.70;1.20;;;9.30;91.80;;;;;;6343100;22;20170;-88
2021/12/29 09:13:12;;;;;;;2.65;1.15;;;9.40;90.80;;;;;;6342790;22;20219;-88
2021/12/29 09:15:40;;;;;;;3.00;1.13;;;9.50;90.60;;;;;;6345064;22;20250;-87
2021/12/29 09:18:08;;;;;;;1.58;1.23;;;9.30;90.50;;;;;;6344944;22;20205;-88
2021/12/29 09:20:37;;;;;;;3.47;1.40;;;9.30;90.80;;;;;;6346493;22;20223;-87
2021/12/29 09:23:08;;;;;;;4.72;1.30;;;9.40;90.60;;;;;;6344390;22;20194;-87
2021/12/29 09:25:37;;;;;;;4.78;1.20;;;9.40;90.50;;;;;;6345134;22;20156;-87
2021/12/29 09:28:06;;;;;;;2.50;1.00;;;9.50;90.60;;;;;;6344138;22;20205;-87
2021/12/29 09:30:36;;;;;;;1.98;1.10;;;9.50;90.60;;;;;;6347884;22;20164;-87
2021/12/29 09:33:05;;;;;;;4.43;1.20;;;9.70;90.40;;;;;;6345828;22;20572;-87
2021/12/29 09:35:32;;;;;;;2.53;1.25;;;9.80;89.80;;;;;;6346365;22;20172;-87
2021/12/29 09:37:59;;;;;;;3.30;1.45;;;9.70;90.60;;;;;;6344966;22;20201;-87
2021/12/29 09:40:27;;;;;;;3.42;1.27;;;9.70;90.60;;;;;;6318705;22;20183;-87
2021/12/29 09:42:56;;;;;;;5.47;1.50;;;9.70;90.30;;;;;;6317415;22;20247;-88
2021/12/29 09:45:24;;;;;;;2.60;1.38;;;9.70;90.00;;;;;;6346419;22;20210;-88
2021/12/29 09:47:53;;;;;;;3.03;1.40;;;9.70;90.80;;;;;;6345736;22;20222;-88
2021/12/29 09:50:21;;;;;;;5.68;1.70;;;9.70;90.60;;;;;;6321971;22;20450;-88
2021/12/29 09:52:49;;;;;;;4.25;1.48;;;9.60;90.20;;;;;;6346758;22;20199;-87
2021/12/29 09:55:22;;;;;;;5.70;1.52;;;9.70;90.50;;;;;;6349589;22;20250;-88
2021/12/29 09:57:54;;;;;;;5.72;1.98;;;9.90;90.70;;;;;;6348927;22;20239;-87
2021/12/29 10:00:24;;;;;;;2.88;1.02;;;10.00;88.30;;;;;;6350087;22;20238;-87
2021/12/29 10:02:53;;;;;;;5.28;1.90;;;10.10;88.30;;;;;;6324420;22;20242;-87
2021/12/29 10:05:20;;;;;;;3.08;1.20;;;10.40;85.00;;;;;;6323343;22;20174;-87
2021/12/29 10:11:36;;;;;;;6.55;1.33;;;10.30;84.20;;;;;;6168040;23;20163;-87
2021/12/29 10:24:36;;;;;;;4.35;1.40;;;10.70;80.00;;;;;;6292197;22;20490;-87
2021/12/29 10:27:04;;;;;;;5.97;1.60;;;10.70;77.50;;;;;;6258910;22;20255;-87
2021/12/29 10:29:33;;;;;;;5.85;1.50;;;10.60;79.40;;;;;;6284615;22;20203;-87
2021/12/29 10:32:03;;;;;;;5.13;1.58;;;10.70;79.40;;;;;;6288114;22;20652;-86
2021/12/29 10:34:32;;;;;;;5.40;1.65;;;11.00;76.70;;;;;;6287224;22;20193;-86
2021/12/29 10:37:07;;;;;;;3.67;1.60;;;11.00;77.60;;;;;;6286229;22;20163;-88
2021/12/29 10:39:36;;;;;;;4.50;1.70;;;11.10;76.50;;;;;;6258321;22;20198;-87
2021/12/29 10:42:06;;;;;;;4.05;1.45;;;11.30;74.50;;;;;;6286858;22;20250;-88
2021/12/29 10:44:37;;;;;;;6.18;1.92;;;11.30;72.80;;;;;;6285520;22;20215;-86
2021/12/29 10:50:58;;;;;;;3.67;1.52;;;11.60;70.10;;;;;;6290301;22;20230;-87
2021/12/29 10:53:37;;;;;;;5.32;1.90;;;11.80;66.20;;;;;;6287358;22;20208;-91
2021/12/29 10:56:06;;;;;;;5.43;1.85;;;12.30;61.30;;;;;;6285629;22;20517;-87
2021/12/29 10:58:35;;;;;;;6.65;1.83;;;12.30;62.90;;;;;;6252953;22;20211;-87
2021/12/29 11:01:08;;;;;;;3.13;1.60;;;12.30;59.50;;;;;;6282484;22;20247;-88
2021/12/29 11:03:43;;;;;;;3.53;1.40;;;12.20;62.00;;;;;;6283882;22;20267;-87
2021/12/29 11:06:15;;;;;;;4.40;1.52;;;11.90;62.90;;;;;;6258924;22;20330;-87
2021/12/29 11:08:55;;;;;;;4.68;1.80;;;11.80;62.00;;;;;;6285327;22;20283;-87
2021/12/29 11:11:35;;;;;;;3.42;1.52;;;11.70;61.30;;;;;;6289732;22;20660;-87
2021/12/29 11:14:11;;;;;;;6.22;2.00;;;11.40;62.90;;;;;;6287924;22;20636;-87
2021/12/29 11:16:40;;;;;;;5.47;1.88;;;10.90;71.50;;;;;;6288183;22;20578;-87
2021/12/29 11:19:08;;;;;;;3.78;1.40;;;10.80;74.00;;;;;;6288010;22;20248;-86
2021/12/29 11:21:37;;;;;;;6.47;1.70;;;10.60;73.70;;;;;;6262937;22;20238;-87
2021/12/29 11:24:20;;;;;;;6.53;1.67;;;10.70;73.80;;;;;;6286555;22;20483;-87
2021/12/29 11:26:49;;;;;;;4.63;1.80;;;10.70;73.80;;;;;;6294058;22;20604;-86
2021/12/29 11:29:54;;;;;;;5.72;1.73;;;10.60;75.70;;;;;;6266786;22;20206;-87
2021/12/29 11:32:40;;;;;;;8.18;1.77;;;10.60;76.10;;;;;;6288968;22;20178;-87
2021/12/29 11:35:43;;;;;;;10.38;2.00;;;10.60;74.90;;;;;;6281306;22;20401;-86
2021/12/29 11:38:18;;;;;;;7.70;1.90;;;10.70;76.70;;;;;;6286105;22;20191;-87
2021/12/29 11:40:48;;;;;;;6.05;1.60;;;10.60;76.00;;;;;;6285640;22;20156;-87
2021/12/29 11:43:17;;;;;;;6.18;2.00;;;10.40;77.20;;;;;;6284052;22;20196;-88
2021/12/29 11:45:46;;;;;;;6.55;2.03;;;10.30;77.80;;;;;;6285321;22;20179;-87
2021/12/29 11:48:15;;;;;;;7.03;1.90;;;10.30;79.10;;;;;;6256653;22;20216;-87
2021/12/29 11:50:48;;;;;;;9.10;1.90;;;10.30;79.10;;;;;;6284201;22;20248;-86
2021/12/29 11:53:31;;;;;;;5.80;1.70;;;10.30;79.20;;;;;;6285273;22;20193;-86
2021/12/29 11:56:01;;;;;;;4.70;1.85;;;10.40;79.10;;;;;;6286936;22;20157;-86
2021/12/29 11:58:32;;;;;;;5.95;2.05;;;10.40;77.90;;;;;;6286267;22;20253;-87
2021/12/29 12:01:05;;;;;;;7.65;2.25;;;10.40;78.60;;;;;;6287485;22;20462;-87
2021/12/29 12:03:44;;;;;;;7.95;2.40;;;10.50;77.80;;;;;;6285119;22;20212;-87
2021/12/29 12:06:26;;;;;;;6.22;2.00;;;10.50;77.50;;;;;;6285404;22;20644;-86
2021/12/29 12:09:09;;;;;;;7.25;2.03;;;10.40;78.00;;;;;;6283760;22;20271;-87
2021/12/29 12:11:37;;;;;;;8.40;2.10;;;10.30;77.80;;;;;;6285506;22;20172;-87
2021/12/29 12:14:04;;;;;;;6.10;1.85;;;10.30;79.10;;;;;;6285214;22;20197;-87
2021/12/29 12:16:32;;;;;;;7.47;2.17;;;10.20;80.30;;;;;;6285869;22;20264;-87
2021/12/29 12:19:01;;;;;;;10.75;2.40;;;10.10;81.20;;;;;;6284683;22;20227;-87
2021/12/29 12:21:30;;;;;;;11.70;2.35;;;10.00;82.40;;;;;;6232859;22;20173;-87
2021/12/29 12:24:12;;;;;;;8.93;2.20;;;10.00;81.80;;;;;;6286013;22;20675;-87
2021/12/29 12:26:54;;;;;;;11.40;2.53;;;10.10;81.10;;;;;;6286410;22;20169;-87
2021/12/29 12:29:22;;;;;;;12.65;2.45;;;10.10;81.80;;;;;;6259990;22;20275;-87
2021/12/29 12:32:05;;;;;;;7.22;2.38;;;10.00;81.90;;;;;;6259771;22;20179;-88
2021/12/29 12:34:36;;;;;;;9.45;2.10;;;9.90;82.50;;;;;;6283946;22;20223;-87
2021/12/29 12:37:15;;;;;;;10.77;2.60;;;9.90;83.40;;;;;;6285211;22;20164;-89
2021/12/29 12:39:54;;;;;;;12.63;2.58;;;9.80;84.00;;;;;;6257805;22;20207;-87
2021/12/29 12:42:21;;;;;;;8.82;2.45;;;9.70;83.90;;;;;;6284486;22;20669;-87
2021/12/29 12:44:48;;;;;;;9.27;2.28;;;9.70;84.40;;;;;;6282781;22;20287;-87
2021/12/29 12:47:16;;;;;;;8.38;2.25;;;9.60;84.90;;;;;;6284124;22;20251;-87
2021/12/29 12:49:51;;;;;;;7.38;2.22;;;9.70;83.10;;;;;;6283221;22;20279;-87
2021/12/29 12:52:20;;;;;;;8.13;2.40;;;9.60;84.50;;;;;;6257272;22;20179;-87
2021/12/29 12:54:52;;;;;;;10.38;2.28;;;9.60;84.00;;;;;;6282948;22;20222;-87
2021/12/29 12:57:39;;;;;;;9.38;2.30;;;9.50;85.10;;;;;;6283564;22;20180;-89
2021/12/29 13:00:16;;;;;;;6.60;1.88;;;9.50;85.10;;;;;;6283935;22;20527;-87
2021/12/29 13:02:46;;;;;;;9.07;2.25;;;9.50;84.60;;;;;;6283635;22;20200;-88
2021/12/29 13:05:18;;;;;;;6.50;2.55;;;9.50;84.60;;;;;;6283089;22;20195;-87
2021/12/29 13:07:52;;;;;;;13.85;2.40;;;9.50;85.30;;;;;;6256108;22;20259;-87
2021/12/29 13:10:27;;;;;;;8.13;2.17;;;9.40;85.20;;;;;;6257520;22;20210;-87
2021/12/29 13:12:58;;;;;;;6.93;2.28;;;9.40;84.60;;;;;;6283686;22;20183;-87
2021/12/29 13:15:27;;;;;;;6.03;2.40;;;9.40;85.40;;;;;;6283933;22;20181;-87
2021/12/29 13:17:54;;;;;;;9.15;2.25;;;9.30;84.80;;;;;;6282693;22;20252;-89
2021/12/29 13:20:23;;;;;;;9.77;2.17;;;9.30;85.50;;;;;;6283818;22;20247;-87
2021/12/29 13:22:50;;;;;;;7.00;2.35;;;9.30;85.00;;;;;;6283322;22;20648;-87
2021/12/29 13:25:19;;;;;;;6.68;1.98;;;9.30;85.80;;;;;;6231301;22;20538;-88
2021/12/29 13:28:01;;;;;;;8.52;2.00;;;9.20;86.30;;;;;;6255075;22;20232;-87
2021/12/29 13:30:30;;;;;;;6.28;2.20;;;9.10;86.80;;;;;;6284023;22;20177;-87
2021/12/29 13:33:00;;;;;;;6.65;1.85;;;9.10;87.20;;;;;;6256349;22;20168;-87
2021/12/29 13:35:31;;;;;;;6.47;2.38;;;9.10;87.30;;;;;;6282836;22;20169;-88
2021/12/29 13:38:00;;;;;;;7.80;2.10;;;9.00;87.10;;;;;;6283393;22;20180;-88